Time;durP1;ratioP1;P1;durP2;ratioP2;P2;SDS_P1;SDS_P2;PMS_P1;PMS_P2;Temp;Humidity;BMP_temperature;BMP_pressure;BME280_temperature;BME280_humidity;BME280_pressure;Samples;Min_cycle;Max_cycle;Signal;HPM_P1;HPM_P2
2023/07/11 00:01:15;;;;;;;;;;;26.50;55.20;;;;;;5092164;28;19978;-57
2023/07/11 00:03:42;;;;;;;;;;;26.50;55.20;;;;;;5092937;28;19928;-57
2023/07/11 00:06:14;;;;;;;;;;;26.50;55.20;;;;;;5092849;28;19981;-57
2023/07/11 00:08:41;;;;;;;;;;;26.50;55.30;;;;;;5092973;28;19928;-57
2023/07/11 00:11:09;;;;;;;;;;;26.50;55.30;;;;;;5092455;28;19924;-57
2023/07/11 00:13:37;;;;;;;;;;;26.40;55.20;;;;;;5092931;28;19931;-57
2023/07/11 00:16:06;;;;;;;;;;;26.40;55.20;;;;;;5092216;28;19931;-58
2023/07/11 00:18:34;;;;;;;;;;;26.40;55.20;;;;;;5091954;28;19924;-57
2023/07/11 00:21:02;;;;;;;;;;;26.40;55.20;;;;;;5092569;28;20012;-59
2023/07/11 00:23:29;;;;;;;;;;;26.40;55.20;;;;;;5092162;28;19924;-57
2023/07/11 00:25:56;;;;;;;;;;;26.40;55.20;;;;;;5092352;28;19924;-57
2023/07/11 00:28:23;;;;;;;;;;;26.40;55.30;;;;;;5092817;28;20350;-58
2023/07/11 00:30:50;;;;;;;;;;;26.40;55.20;;;;;;5091916;28;20376;-57
2023/07/11 00:33:18;;;;;;;;;;;26.40;55.20;;;;;;5090849;28;19974;-57
2023/07/11 00:35:50;;;;;;;;;;;26.40;55.20;;;;;;5092878;28;20425;-57
2023/07/11 00:38:17;;;;;;;;;;;26.40;55.20;;;;;;5093553;28;19985;-57
2023/07/11 00:40:45;;;;;;;;;;;26.40;55.50;;;;;;5091902;28;19928;-57
2023/07/11 00:43:13;;;;;;;;;;;26.40;55.20;;;;;;5092904;28;20015;-58
2023/07/11 00:46:00;;;;;;;;;;;26.40;55.20;;;;;;5095425;28;19982;-57
2023/07/11 00:48:28;;;;;;;;;;;26.40;55.20;;;;;;5095426;28;19928;-57
2023/07/11 00:50:55;;;;;;;;;;;26.40;55.20;;;;;;5095632;28;19963;-57
2023/07/11 00:53:23;;;;;;;;;;;26.40;55.20;;;;;;5097134;28;19928;-58
2023/07/11 00:55:50;;;;;;;;;;;26.40;55.20;;;;;;5096242;28;19932;-58
2023/07/11 00:58:19;;;;;;;;;;;26.40;55.20;;;;;;5095770;28;19924;-58
2023/07/11 01:00:46;;;;;;;;;;;26.40;55.20;;;;;;5095948;28;19982;-58
2023/07/11 01:03:13;;;;;;;;;;;26.40;55.20;;;;;;5096228;28;19954;-57
2023/07/11 01:05:40;;;;;;;;;;;26.40;55.20;;;;;;5096772;28;20431;-57
2023/07/11 01:08:07;;;;;;;;;;;26.40;55.20;;;;;;5095682;28;19924;-58
2023/07/11 01:10:34;;;;;;;;;;;26.40;55.10;;;;;;5096094;28;19924;-57
2023/07/11 01:13:03;;;;;;;;;;;26.40;55.10;;;;;;5096089;28;19924;-57
2023/07/11 01:15:31;;;;;;;;;;;26.40;55.10;;;;;;5095964;28;19924;-57
2023/07/11 01:17:58;;;;;;;;;;;26.40;55.10;;;;;;5095920;28;19932;-58
2023/07/11 01:20:25;;;;;;;;;;;26.40;55.10;;;;;;5095992;28;20402;-57
2023/07/11 01:22:52;;;;;;;;;;;26.40;55.00;;;;;;5095943;28;19924;-58
2023/07/11 01:25:19;;;;;;;;;;;26.40;55.10;;;;;;5095173;28;20315;-58
2023/07/11 01:27:47;;;;;;;;;;;26.40;55.00;;;;;;5095708;28;19982;-58
2023/07/11 01:30:16;;;;;;;;;;;26.40;55.00;;;;;;5093692;28;19935;-58
2023/07/11 01:32:44;;;;;;;;;;;26.40;55.00;;;;;;5095531;28;19950;-58
2023/07/11 01:35:11;;;;;;;;;;;26.40;55.00;;;;;;5094779;28;19924;-57
2023/07/11 01:37:38;;;;;;;;;;;26.40;55.00;;;;;;5094896;28;19981;-57
2023/07/11 01:40:05;;;;;;;;;;;26.40;55.00;;;;;;5094516;28;20001;-58
2023/07/11 01:42:32;;;;;;;;;;;26.40;55.00;;;;;;5095453;28;19925;-58
2023/07/11 01:44:59;;;;;;;;;;;26.40;54.90;;;;;;5094965;28;19924;-58
2023/07/11 01:47:26;;;;;;;;;;;26.40;55.00;;;;;;5095377;28;20372;-58
2023/07/11 01:49:53;;;;;;;;;;;26.40;55.00;;;;;;5094447;28;20824;-57
2023/07/11 01:52:21;;;;;;;;;;;26.40;55.00;;;;;;5095237;28;19953;-57
2023/07/11 01:54:49;;;;;;;;;;;26.40;55.00;;;;;;5093249;28;19924;-58
2023/07/11 01:57:16;;;;;;;;;;;26.40;55.00;;;;;;5095286;28;20441;-58
2023/07/11 01:59:43;;;;;;;;;;;26.40;55.00;;;;;;5095804;28;19969;-58
2023/07/11 02:02:10;;;;;;;;;;;26.40;55.00;;;;;;5095625;28;19928;-58
2023/07/11 02:04:37;;;;;;;;;;;26.40;55.00;;;;;;5094686;28;19977;-58
2023/07/11 02:07:05;;;;;;;;;;;26.30;55.50;;;;;;5094393;28;19931;-57
2023/07/11 02:09:32;;;;;;;;;;;26.40;55.00;;;;;;5094623;28;20407;-58
2023/07/11 02:11:59;;;;;;;;;;;26.30;55.00;;;;;;5095087;28;19924;-58
2023/07/11 02:14:26;;;;;;;;;;;26.30;55.00;;;;;;5093581;28;20353;-57
2023/07/11 02:16:53;;;;;;;;;;;26.30;55.00;;;;;;5094528;28;19931;-57
2023/07/11 02:19:21;;;;;;;;;;;26.30;55.00;;;;;;5094714;28;19924;-58
2023/07/11 02:21:49;;;;;;;;;;;26.30;55.00;;;;;;5094758;28;19924;-57
2023/07/11 02:24:16;;;;;;;;;;;26.30;55.00;;;;;;5095044;28;20360;-58
2023/07/11 02:26:44;;;;;;;;;;;26.30;55.00;;;;;;5094256;28;19924;-57
2023/07/11 02:29:11;;;;;;;;;;;26.30;55.00;;;;;;5093809;28;19932;-57
2023/07/11 02:31:38;;;;;;;;;;;26.30;55.00;;;;;;5094608;28;19970;-58
2023/07/11 02:34:06;;;;;;;;;;;26.30;55.00;;;;;;5094396;28;20380;-58
2023/07/11 02:36:33;;;;;;;;;;;26.30;55.00;;;;;;5094436;28;20296;-58
2023/07/11 02:39:00;;;;;;;;;;;26.30;55.00;;;;;;5094705;28;19997;-57
2023/07/11 02:41:27;;;;;;;;;;;26.30;55.00;;;;;;5093786;28;19970;-58
2023/07/11 02:43:55;;;;;;;;;;;26.30;55.00;;;;;;5094726;28;19924;-57
2023/07/11 02:46:21;;;;;;;;;;;26.30;55.00;;;;;;5093945;28;20019;-58
2023/07/11 02:48:49;;;;;;;;;;;26.30;55.00;;;;;;5094579;28;19924;-58
2023/07/11 02:51:16;;;;;;;;;;;26.30;55.00;;;;;;5093509;28;19924;-57
2023/07/11 02:53:43;;;;;;;;;;;26.30;55.00;;;;;;5094039;28;19967;-58
2023/07/11 02:56:10;;;;;;;;;;;26.30;55.00;;;;;;5094007;28;20323;-59
2023/07/11 02:58:37;;;;;;;;;;;26.30;55.00;;;;;;5094216;28;20324;-58
2023/07/11 03:01:04;;;;;;;;;;;26.30;55.00;;;;;;5093063;28;19924;-57
2023/07/11 03:03:31;;;;;;;;;;;26.30;55.00;;;;;;5093557;28;19935;-58
2023/07/11 03:05:58;;;;;;;;;;;26.20;55.00;;;;;;5092124;28;20345;-57
2023/07/11 03:08:25;;;;;;;;;;;26.30;55.00;;;;;;5094003;28;19969;-57
2023/07/11 03:10:55;;;;;;;;;;;26.30;55.00;;;;;;5093286;28;19970;-57
2023/07/11 03:13:22;;;;;;;;;;;26.30;55.00;;;;;;5093157;28;19924;-57
2023/07/11 03:15:49;;;;;;;;;;;26.30;55.00;;;;;;5092799;28;19928;-57
2023/07/11 03:18:16;;;;;;;;;;;26.30;55.00;;;;;;5094111;28;19950;-58
2023/07/11 03:20:43;;;;;;;;;;;26.30;55.00;;;;;;5093029;28;19967;-57
2023/07/11 03:23:14;;;;;;;;;;;26.30;54.90;;;;;;5094139;28;19928;-57
2023/07/11 03:25:41;;;;;;;;;;;26.30;54.90;;;;;;5093950;28;19924;-57
2023/07/11 03:28:08;;;;;;;;;;;26.30;54.90;;;;;;5093476;28;20437;-57
2023/07/11 03:30:35;;;;;;;;;;;26.30;54.90;;;;;;5094052;28;20011;-57
2023/07/11 03:33:03;;;;;;;;;;;26.30;54.90;;;;;;5093897;28;19931;-58
2023/07/11 03:35:31;;;;;;;;;;;26.30;54.90;;;;;;5093588;28;20416;-58
2023/07/11 03:37:58;;;;;;;;;;;26.30;54.80;;;;;;5093597;28;19924;-57
2023/07/11 03:40:25;;;;;;;;;;;26.40;54.80;;;;;;5093039;28;19936;-57
2023/07/11 03:42:52;;;;;;;;;;;26.40;54.80;;;;;;5093444;28;20443;-57
2023/07/11 03:45:20;;;;;;;;;;;26.40;54.80;;;;;;5093199;28;19924;-57
2023/07/11 03:47:47;;;;;;;;;;;26.40;54.70;;;;;;5093757;28;19924;-58
2023/07/11 03:50:14;;;;;;;;;;;26.40;54.70;;;;;;5093785;28;19928;-57
2023/07/11 03:52:41;;;;;;;;;;;26.40;54.70;;;;;;5093697;28;19927;-58
2023/07/11 03:55:08;;;;;;;;;;;26.40;54.70;;;;;;5093365;28;19924;-57
2023/07/11 03:57:36;;;;;;;;;;;26.40;54.60;;;;;;5093532;28;20376;-59
2023/07/11 04:00:03;;;;;;;;;;;26.40;54.60;;;;;;5093253;28;19972;-57
2023/07/11 04:02:30;;;;;;;;;;;26.40;54.60;;;;;;5080079;28;19928;-57
2023/07/11 04:04:57;;;;;;;;;;;26.40;54.60;;;;;;5082475;28;19999;-57
2023/07/11 04:07:24;;;;;;;;;;;26.40;54.50;;;;;;5082104;28;20438;-58
2023/07/11 04:09:51;;;;;;;;;;;26.50;54.60;;;;;;5087428;28;19951;-57
2023/07/11 04:12:18;;;;;;;;;;;26.50;54.60;;;;;;5075309;28;19928;-57
2023/07/11 04:14:45;;;;;;;;;;;26.50;54.50;;;;;;5084880;28;19932;-58
2023/07/11 04:17:12;;;;;;;;;;;26.50;54.50;;;;;;5088240;28;19925;-57
2023/07/11 04:19:39;;;;;;;;;;;26.50;54.50;;;;;;5095248;28;19931;-59
2023/07/11 04:22:06;;;;;;;;;;;26.50;54.40;;;;;;5081318;28;19970;-57
2023/07/11 04:24:33;;;;;;;;;;;26.50;54.40;;;;;;5096833;28;19924;-57
2023/07/11 04:27:00;;;;;;;;;;;26.50;54.40;;;;;;5096571;28;19928;-57
2023/07/11 04:29:28;;;;;;;;;;;26.50;54.30;;;;;;5096180;28;20434;-57
2023/07/11 04:31:55;;;;;;;;;;;26.50;54.30;;;;;;5079656;28;20076;-57
2023/07/11 04:34:22;;;;;;;;;;;26.50;54.30;;;;;;5097690;28;19924;-56
2023/07/11 04:36:49;;;;;;;;;;;26.50;54.30;;;;;;5094659;28;20372;-58
2023/07/11 04:39:16;;;;;;;;;;;26.50;54.40;;;;;;5097008;28;20288;-58
2023/07/11 04:41:43;;;;;;;;;;;26.40;54.50;;;;;;5095936;28;20454;-57
2023/07/11 04:44:10;;;;;;;;;;;26.40;54.70;;;;;;5086094;28;20007;-57
2023/07/11 04:46:37;;;;;;;;;;;26.20;55.00;;;;;;5076807;28;19925;-57
2023/07/11 04:49:04;;;;;;;;;;;26.00;55.00;;;;;;5076462;28;19925;-57
2023/07/11 04:51:31;;;;;;;;;;;25.80;54.30;;;;;;5076322;28;20450;-58
2023/07/11 04:53:59;;;;;;;;;;;25.50;53.90;;;;;;5076305;28;19924;-55
2023/07/11 04:56:26;;;;;;;;;;;25.20;53.60;;;;;;5076187;28;19924;-57
2023/07/11 04:58:52;;;;;;;;;;;24.90;53.30;;;;;;5075932;28;19924;-57
2023/07/11 05:01:19;;;;;;;;;;;24.70;53.20;;;;;;5075999;28;19925;-58
2023/07/11 05:03:49;;;;;;;;;;;24.30;53.40;;;;;;5076121;28;20010;-58
2023/07/11 05:06:16;;;;;;;;;;;24.10;53.40;;;;;;5075809;28;19963;-57
2023/07/11 05:08:43;;;;;;;;;;;23.80;53.40;;;;;;5079073;28;19928;-57
2023/07/11 05:11:13;;;;;;;;;;;23.40;53.40;;;;;;5084980;28;19924;-57
2023/07/11 05:13:40;;;;;;;;;;;23.20;53.50;;;;;;5076036;28;19978;-57
2023/07/11 05:16:10;;;;;;;;;;;22.90;53.60;;;;;;5079766;28;20345;-57
2023/07/11 05:18:40;;;;;;;;;;;22.70;53.90;;;;;;5075860;28;19931;-58
2023/07/11 05:21:12;;;;;;;;;;;22.40;54.30;;;;;;5069040;28;20387;-62
2023/07/11 05:23:39;;;;;;;;;;;22.20;54.00;;;;;;5081249;28;19924;-62
2023/07/11 05:26:07;;;;;;;;;;;22.10;54.10;;;;;;5078731;28;19924;-63
2023/07/11 05:28:34;;;;;;;;;;;21.90;54.20;;;;;;5075253;28;19929;-62
2023/07/11 05:31:02;;;;;;;;;;;21.70;55.30;;;;;;5069827;28;20085;-62
2023/07/11 05:33:29;;;;;;;;;;;21.60;55.90;;;;;;5082391;28;20349;-63
2023/07/11 05:36:33;;;;;;;;;;;21.50;56.70;;;;;;5076475;28;20376;-65
2023/07/11 05:39:04;;;;;;;;;;;21.40;57.10;;;;;;5076827;28;19924;-62
2023/07/11 05:41:32;;;;;;;;;;;21.30;57.50;;;;;;5081420;28;20001;-62
2023/07/11 05:43:59;;;;;;;;;;;21.30;57.60;;;;;;5077156;28;19961;-64
2023/07/11 05:46:27;;;;;;;;;;;21.20;58.20;;;;;;5077319;28;19924;-65
2023/07/11 05:48:54;;;;;;;;;;;21.20;59.00;;;;;;5081715;28;20422;-63
2023/07/11 05:51:22;;;;;;;;;;;21.20;59.30;;;;;;5082528;28;20282;-62
2023/07/11 05:53:49;;;;;;;;;;;21.20;58.60;;;;;;5082146;28;19928;-64
2023/07/11 05:56:17;;;;;;;;;;;21.30;59.70;;;;;;5077264;28;19934;-63
2023/07/11 05:58:46;;;;;;;;;;;21.20;59.60;;;;;;5079047;28;19952;-63
2023/07/11 06:01:15;;;;;;;;;;;21.20;60.00;;;;;;5079010;28;19929;-64
2023/07/11 06:03:45;;;;;;;;;;;21.20;60.00;;;;;;5074163;28;19928;-63
2023/07/11 06:06:16;;;;;;;;;;;21.30;61.10;;;;;;5076959;28;19923;-63
2023/07/11 06:08:43;;;;;;;;;;;21.30;60.60;;;;;;5073054;28;19930;-63
2023/07/11 06:11:10;;;;;;;;;;;21.30;60.50;;;;;;5069864;28;19967;-63
2023/07/11 06:13:38;;;;;;;;;;;21.30;61.00;;;;;;5078350;28;19947;-64
2023/07/11 06:16:07;;;;;;;;;;;21.30;61.40;;;;;;5073867;28;19932;-63
2023/07/11 06:18:35;;;;;;;;;;;21.30;61.90;;;;;;5077251;28;19932;-66
2023/07/11 06:21:04;;;;;;;;;;;21.30;61.50;;;;;;5074589;28;19963;-63
2023/07/11 06:23:31;;;;;;;;;;;21.30;61.70;;;;;;5077720;28;19954;-62
2023/07/11 06:25:58;;;;;;;;;;;21.20;61.80;;;;;;5073468;28;19939;-62
2023/07/11 06:28:26;;;;;;;;;;;21.20;62.20;;;;;;5075987;28;19924;-62
2023/07/11 06:31:00;;;;;;;;;;;21.20;61.70;;;;;;5077384;28;19924;-62
2023/07/11 06:33:29;;;;;;;;;;;21.20;62.00;;;;;;5071521;28;19924;-62
2023/07/11 06:35:57;;;;;;;;;;;21.20;61.90;;;;;;5086087;28;19977;-63
2023/07/11 06:38:24;;;;;;;;;;;21.30;62.20;;;;;;5076477;28;19981;-62
2023/07/11 06:40:53;;;;;;;;;;;21.30;62.30;;;;;;5072007;28;20388;-60
2023/07/11 06:43:23;;;;;;;;;;;21.40;62.20;;;;;;5068655;28;19924;-60
2023/07/11 06:45:53;;;;;;;;;;;21.40;62.20;;;;;;5076350;28;20384;-58
2023/07/11 06:48:24;;;;;;;;;;;21.50;61.50;;;;;;5076176;28;19947;-59
2023/07/11 06:50:56;;;;;;;;;;;21.50;61.80;;;;;;5073622;28;19937;-60
2023/07/11 06:53:26;;;;;;;;;;;21.50;62.00;;;;;;5077054;28;20376;-59
2023/07/11 06:55:53;;;;;;;;;;;21.50;61.90;;;;;;5085443;28;19928;-60
2023/07/11 06:58:20;;;;;;;;;;;21.50;61.60;;;;;;5076346;28;19982;-61
2023/07/11 07:00:56;;;;;;;;;;;21.60;61.40;;;;;;5070962;28;19943;-61
2023/07/11 07:03:23;;;;;;;;;;;21.60;61.50;;;;;;5077496;28;20015;-63
2023/07/11 07:05:52;;;;;;;;;;;21.60;61.20;;;;;;5083492;28;19931;-63
2023/07/11 07:08:20;;;;;;;;;;;21.60;61.00;;;;;;5081033;28;20414;-62
2023/07/11 07:10:48;;;;;;;;;;;21.60;61.30;;;;;;5077044;28;19942;-62
2023/07/11 07:13:15;;;;;;;;;;;21.70;61.30;;;;;;5081128;28;19977;-61
2023/07/11 07:15:46;;;;;;;;;;;21.70;61.00;;;;;;5070694;28;20700;-62
2023/07/11 07:18:13;;;;;;;;;;;21.70;61.10;;;;;;5072602;28;20319;-61
2023/07/11 07:20:40;;;;;;;;;;;21.70;60.90;;;;;;5072578;28;20384;-61
2023/07/11 07:23:23;;;;;;;;;;;21.70;61.20;;;;;;5077572;28;20229;-62
2023/07/11 07:25:53;;;;;;;;;;;21.80;60.80;;;;;;5071804;28;19969;-62
2023/07/11 07:28:20;;;;;;;;;;;21.80;61.40;;;;;;5075370;28;19971;-63
2023/07/11 07:30:48;;;;;;;;;;;21.80;60.70;;;;;;5072826;28;19943;-62
2023/07/11 07:33:15;;;;;;;;;;;21.80;60.80;;;;;;5068225;28;20368;-63
2023/07/11 07:35:42;;;;;;;;;;;21.80;60.80;;;;;;5065340;28;19932;-61
2023/07/11 07:38:11;;;;;;;;;;;21.80;60.50;;;;;;5073546;28;19981;-63
2023/07/11 07:40:38;;;;;;;;;;;21.90;60.20;;;;;;5079268;28;19928;-63
2023/07/11 07:43:07;;;;;;;;;;;21.90;60.50;;;;;;5073672;28;20654;-63
2023/07/11 07:45:34;;;;;;;;;;;21.90;60.50;;;;;;5076420;28;20062;-63
2023/07/11 07:48:01;;;;;;;;;;;21.90;60.30;;;;;;5077283;28;19928;-63
2023/07/11 07:50:28;;;;;;;;;;;22.00;60.30;;;;;;5070440;28;20319;-63
2023/07/11 07:52:55;;;;;;;;;;;22.00;60.40;;;;;;5079704;28;19971;-64
2023/07/11 07:55:22;;;;;;;;;;;22.00;59.90;;;;;;5078988;28;19947;-63
2023/07/11 07:57:49;;;;;;;;;;;21.90;59.90;;;;;;5075936;28;20023;-64
2023/07/11 08:00:16;;;;;;;;;;;21.90;60.20;;;;;;5073126;28;19967;-63
2023/07/11 08:02:45;;;;;;;;;;;21.90;59.80;;;;;;5081000;28;19925;-64
2023/07/11 08:05:12;;;;;;;;;;;21.90;59.70;;;;;;5076559;28;19935;-63
2023/07/11 08:07:39;;;;;;;;;;;21.90;60.00;;;;;;5079542;28;20675;-63
2023/07/11 08:10:08;;;;;;;;;;;21.90;60.00;;;;;;5076944;28;19963;-63
2023/07/11 08:12:35;;;;;;;;;;;21.90;59.90;;;;;;5073069;28;19944;-63
2023/07/11 08:15:03;;;;;;;;;;;21.90;59.60;;;;;;5075784;28;19924;-64
2023/07/11 08:17:31;;;;;;;;;;;21.90;59.60;;;;;;5069971;28;19924;-63
2023/07/11 08:19:58;;;;;;;;;;;21.90;60.00;;;;;;5074750;28;19975;-63
2023/07/11 08:22:25;;;;;;;;;;;21.80;60.10;;;;;;5074919;28;20118;-63
2023/07/11 08:24:52;;;;;;;;;;;21.90;60.20;;;;;;5068412;28;19929;-63
2023/07/11 08:27:19;;;;;;;;;;;21.90;60.30;;;;;;5070283;28;19978;-66
2023/07/11 08:29:46;;;;;;;;;;;21.80;60.00;;;;;;5078722;28;20348;-63
2023/07/11 08:32:13;;;;;;;;;;;21.80;60.40;;;;;;5077411;28;20376;-62
2023/07/11 08:34:41;;;;;;;;;;;21.90;60.40;;;;;;5079557;28;19968;-63
2023/07/11 08:37:08;;;;;;;;;;;21.80;60.10;;;;;;5080117;28;20356;-63
2023/07/11 08:39:37;;;;;;;;;;;21.80;60.60;;;;;;5081555;28;19928;-63
2023/07/11 08:42:08;;;;;;;;;;;21.80;60.50;;;;;;5069706;28;20418;-63
2023/07/11 08:44:39;;;;;;;;;;;21.90;63.10;;;;;;5081242;28;20355;-63
2023/07/11 08:47:11;;;;;;;;;;;22.10;63.70;;;;;;5072834;28;19924;-62
2023/07/11 08:49:45;;;;;;;;;;;22.30;62.90;;;;;;5073922;28;20264;-64
2023/07/11 08:52:13;;;;;;;;;;;22.60;61.40;;;;;;5073682;28;20467;-63
2023/07/11 08:54:53;;;;;;;;;;;22.60;58.50;;;;;;5082551;28;19924;-63
2023/07/11 08:57:23;;;;;;;;;;;22.60;58.70;;;;;;5082867;28;20380;-63
2023/07/11 09:00:05;;;;;;;;;;;22.60;58.70;;;;;;5075417;28;20368;-63
2023/07/11 09:02:41;;;;;;;;;;;22.60;58.80;;;;;;5075608;28;19924;-63
2023/07/11 09:05:12;;;;;;;;;;;22.60;58.70;;;;;;5082354;28;19924;-64
2023/07/11 09:07:40;;;;;;;;;;;22.60;59.00;;;;;;5081752;28;19932;-63
2023/07/11 09:10:24;;;;;;;;;;;22.50;58.80;;;;;;5083983;28;19924;-63
2023/07/11 09:13:20;;;;;;;;;;;22.50;58.80;;;;;;5075819;28;19978;-63
2023/07/11 09:15:54;;;;;;;;;;;22.50;59.00;;;;;;5088409;28;19981;-63
2023/07/11 09:18:33;;;;;;;;;;;22.50;59.40;;;;;;5081965;28;19924;-64
2023/07/11 09:21:04;;;;;;;;;;;22.50;59.40;;;;;;5079612;28;19929;-63
2023/07/11 09:23:40;;;;;;;;;;;22.40;59.00;;;;;;5085720;28;19974;-63
2023/07/11 09:26:09;;;;;;;;;;;22.50;58.90;;;;;;5083450;28;19924;-62
2023/07/11 09:28:37;;;;;;;;;;;22.50;58.80;;;;;;5078064;28;19971;-63
2023/07/11 09:31:07;;;;;;;;;;;22.50;58.80;;;;;;5081362;28;19958;-63
2023/07/11 09:33:40;;;;;;;;;;;22.40;58.60;;;;;;5082203;28;19974;-63
2023/07/11 09:36:27;;;;;;;;;;;22.40;58.70;;;;;;5077281;28;19970;-63
2023/07/11 09:38:57;;;;;;;;;;;22.40;58.50;;;;;;5080793;28;19963;-63
2023/07/11 09:41:29;;;;;;;;;;;22.40;58.80;;;;;;5079232;28;19955;-62
2023/07/11 09:44:15;;;;;;;;;;;22.40;58.80;;;;;;5079481;28;19932;-63
2023/07/11 09:46:42;;;;;;;;;;;22.40;58.90;;;;;;5079196;28;19971;-63
2023/07/11 09:49:16;;;;;;;;;;;22.30;58.80;;;;;;5078801;28;19985;-63
2023/07/11 09:51:50;;;;;;;;;;;22.30;58.50;;;;;;5080844;28;19936;-63
2023/07/11 09:54:25;;;;;;;;;;;22.30;59.20;;;;;;5081030;28;19969;-63
2023/07/11 09:56:52;;;;;;;;;;;22.20;59.10;;;;;;5082872;28;19982;-62
2023/07/11 09:59:20;;;;;;;;;;;22.20;59.00;;;;;;5075120;28;20018;-63
2023/07/11 10:01:53;;;;;;;;;;;22.30;58.80;;;;;;5075975;28;20288;-63
2023/07/11 10:04:22;;;;;;;;;;;22.30;58.80;;;;;;5083066;28;20444;-63
2023/07/11 10:06:59;;;;;;;;;;;22.30;59.00;;;;;;5080585;28;20050;-63
2023/07/11 10:09:28;;;;;;;;;;;22.40;59.10;;;;;;5084661;28;19924;-63
2023/07/11 10:11:57;;;;;;;;;;;22.50;58.70;;;;;;5084337;28;19924;-63
2023/07/11 10:14:26;;;;;;;;;;;22.50;58.90;;;;;;5081258;28;19986;-62
2023/07/11 10:16:54;;;;;;;;;;;22.50;58.50;;;;;;5081573;28;19932;-63
2023/07/11 10:19:21;;;;;;;;;;;22.60;58.50;;;;;;5088162;28;20078;-63
2023/07/11 10:21:49;;;;;;;;;;;22.50;58.00;;;;;;5092722;28;19928;-62
2023/07/11 10:24:23;;;;;;;;;;;22.60;58.20;;;;;;5089093;28;19924;-62
2023/07/11 10:26:56;;;;;;;;;;;22.60;58.60;;;;;;5080400;28;19924;-63
2023/07/11 10:29:24;;;;;;;;;;;22.60;58.20;;;;;;5086015;28;19963;-61
2023/07/11 10:32:00;;;;;;;;;;;22.60;57.80;;;;;;5089897;28;19935;-61
2023/07/11 10:34:35;;;;;;;;;;;22.60;58.20;;;;;;5076027;28;19928;-61
2023/07/11 10:37:06;;;;;;;;;;;22.60;58.60;;;;;;5077045;28;20435;-61
2023/07/11 10:39:47;;;;;;;;;;;22.60;58.30;;;;;;5074522;28;19924;-61
2023/07/11 10:42:35;;;;;;;;;;;22.60;57.70;;;;;;5077359;28;20350;-62
2023/07/11 10:45:07;;;;;;;;;;;22.60;58.40;;;;;;5076785;28;20038;-61
2023/07/11 10:47:39;;;;;;;;;;;22.60;58.20;;;;;;5081217;28;19928;-59
2023/07/11 10:50:16;;;;;;;;;;;22.60;58.80;;;;;;5082338;28;19998;-61
2023/07/11 10:52:48;;;;;;;;;;;22.60;58.80;;;;;;5075603;28;19929;-62
2023/07/11 10:55:18;;;;;;;;;;;22.60;58.60;;;;;;5078381;28;20363;-61
2023/07/11 10:57:48;;;;;;;;;;;22.70;58.70;;;;;;5069507;28;19933;-61
2023/07/11 11:00:17;;;;;;;;;;;22.70;58.80;;;;;;5092454;28;19924;-61
2023/07/11 11:03:05;;;;;;;;;;;22.70;58.80;;;;;;5074417;28;19936;-61
2023/07/11 11:05:40;;;;;;;;;;;22.70;59.00;;;;;;5069095;28;19932;-60
2023/07/11 11:08:11;;;;;;;;;;;22.70;59.40;;;;;;5071843;28;19928;-62
2023/07/11 11:10:55;;;;;;;;;;;22.70;59.60;;;;;;5084193;28;20272;-61
2023/07/11 11:13:33;;;;;;;;;;;22.80;59.50;;;;;;5077286;28;19967;-60
2023/07/11 11:16:22;;;;;;;;;;;22.70;59.60;;;;;;5079231;28;20188;-60
2023/07/11 11:19:11;;;;;;;;;;;22.80;59.60;;;;;;5083434;28;20007;-61
2023/07/11 11:21:44;;;;;;;;;;;22.90;59.60;;;;;;5078812;28;19924;-61
2023/07/11 11:24:28;;;;;;;;;;;22.90;59.20;;;;;;5081445;28;19932;-61
2023/07/11 11:27:00;;;;;;;;;;;22.90;59.20;;;;;;5075489;28;19971;-62
2023/07/11 11:29:47;;;;;;;;;;;22.90;59.50;;;;;;5082075;28;19985;-61
2023/07/11 11:32:34;;;;;;;;;;;23.00;59.40;;;;;;5075935;28;19932;-62
2023/07/11 11:35:13;;;;;;;;;;;23.00;59.00;;;;;;5068995;28;19928;-62
2023/07/11 11:37:56;;;;;;;;;;;23.00;58.80;;;;;;5083366;28;19925;-63
2023/07/11 11:40:25;;;;;;;;;;;23.00;58.40;;;;;;5073283;28;20284;-60
2023/07/11 11:42:58;;;;;;;;;;;23.00;58.70;;;;;;5077456;28;19924;-58
2023/07/11 11:45:28;;;;;;;;;;;22.90;58.60;;;;;;5077301;28;19986;-60
2023/07/11 11:48:19;;;;;;;;;;;22.90;58.80;;;;;;5073612;28;19987;-61
2023/07/11 11:50:49;;;;;;;;;;;22.90;58.40;;;;;;5075065;28;19932;-62
2023/07/11 11:53:24;;;;;;;;;;;22.90;59.00;;;;;;5075947;28;19932;-63
2023/07/11 11:55:56;;;;;;;;;;;22.90;58.60;;;;;;5071235;28;19946;-61
2023/07/11 11:59:02;;;;;;;;;;;22.80;58.60;;;;;;5073074;28;20228;-62
2023/07/11 12:01:37;;;;;;;;;;;22.80;59.30;;;;;;5080371;28;19967;-63
2023/07/11 12:04:24;;;;;;;;;;;22.90;59.00;;;;;;5078368;28;19993;-62
2023/07/11 12:06:51;;;;;;;;;;;22.90;59.10;;;;;;5074508;28;19963;-62
2023/07/11 12:09:23;;;;;;;;;;;22.90;58.90;;;;;;5073702;28;19928;-63
2023/07/11 12:12:10;;;;;;;;;;;22.90;58.70;;;;;;5074958;28;19933;-60
2023/07/11 12:14:56;;;;;;;;;;;22.90;58.50;;;;;;5070026;28;19931;-63
2023/07/11 12:17:43;;;;;;;;;;;23.00;57.70;;;;;;5078768;28;20015;-61
2023/07/11 12:20:11;;;;;;;;;;;23.00;58.40;;;;;;5076697;28;20396;-61
2023/07/11 12:22:58;;;;;;;;;;;22.90;58.60;;;;;;5072155;28;19928;-62
2023/07/11 12:25:28;;;;;;;;;;;23.00;58.50;;;;;;5078579;28;19929;-62
2023/07/11 12:28:01;;;;;;;;;;;23.00;58.30;;;;;;5075498;28;19932;-63
2023/07/11 12:30:42;;;;;;;;;;;23.00;58.30;;;;;;5078924;28;19960;-63
2023/07/11 12:33:29;;;;;;;;;;;23.00;58.00;;;;;;5085271;28;19925;-63
2023/07/11 12:36:16;;;;;;;;;;;23.00;58.00;;;;;;5079127;28;19936;-63
2023/07/11 12:38:53;;;;;;;;;;;22.90;57.70;;;;;;5076829;28;19935;-64
2023/07/11 12:41:40;;;;;;;;;;;22.90;58.30;;;;;;5080892;28;19931;-63
2023/07/11 12:44:15;;;;;;;;;;;22.90;59.40;;;;;;5081636;28;19924;-63
2023/07/11 12:46:44;;;;;;;;;;;23.10;61.10;;;;;;5083529;28;19924;-63
2023/07/11 12:49:14;;;;;;;;;;;23.30;60.70;;;;;;5080909;28;19970;-63
2023/07/11 12:51:41;;;;;;;;;;;23.40;60.10;;;;;;5075985;28;19924;-63
2023/07/11 12:54:16;;;;;;;;;;;23.60;59.80;;;;;;5076400;28;20309;-63
2023/07/11 12:56:44;;;;;;;;;;;23.70;59.50;;;;;;5083296;28;19989;-63
2023/07/11 12:59:20;;;;;;;;;;;23.70;59.10;;;;;;5074238;28;19928;-63
2023/07/11 13:01:49;;;;;;;;;;;23.80;58.90;;;;;;5077830;28;19962;-63
2023/07/11 13:04:34;;;;;;;;;;;23.90;58.80;;;;;;5080533;28;19932;-63
2023/07/11 13:07:15;;;;;;;;;;;23.90;58.50;;;;;;5074660;28;19924;-63
2023/07/11 13:09:47;;;;;;;;;;;23.90;58.10;;;;;;5074717;28;19994;-62
2023/07/11 13:12:19;;;;;;;;;;;23.90;58.00;;;;;;5079318;28;19933;-63
2023/07/11 13:14:47;;;;;;;;;;;24.00;58.00;;;;;;5075287;28;19932;-63
2023/07/11 13:17:15;;;;;;;;;;;24.00;57.80;;;;;;5090424;28;19933;-64
2023/07/11 13:19:43;;;;;;;;;;;24.00;57.80;;;;;;5081298;28;19936;-63
2023/07/11 13:22:15;;;;;;;;;;;24.00;57.60;;;;;;5073017;28;20424;-62
2023/07/11 13:24:43;;;;;;;;;;;24.00;57.60;;;;;;5074831;28;20018;-63
2023/07/11 13:27:19;;;;;;;;;;;24.00;57.30;;;;;;5077069;28;19932;-64
2023/07/11 13:29:52;;;;;;;;;;;24.00;57.60;;;;;;5084198;28;19932;-64
2023/07/11 13:32:23;;;;;;;;;;;24.00;57.70;;;;;;5076399;28;19928;-64
2023/07/11 13:34:52;;;;;;;;;;;24.00;58.10;;;;;;5078669;28;19924;-65
2023/07/11 13:37:20;;;;;;;;;;;24.10;57.50;;;;;;5071409;28;19925;-66
2023/07/11 13:39:48;;;;;;;;;;;24.10;57.50;;;;;;5081634;28;19967;-63
2023/07/11 13:42:17;;;;;;;;;;;24.10;57.40;;;;;;5075669;28;19946;-64
2023/07/11 13:44:47;;;;;;;;;;;24.10;57.30;;;;;;5084090;28;19931;-64
2023/07/11 13:47:19;;;;;;;;;;;24.10;57.30;;;;;;5080811;28;19955;-63
2023/07/11 13:49:47;;;;;;;;;;;24.00;57.30;;;;;;5081104;28;19970;-63
2023/07/11 13:52:19;;;;;;;;;;;24.10;57.30;;;;;;5073254;28;20073;-64
2023/07/11 13:54:51;;;;;;;;;;;24.10;57.30;;;;;;5076540;28;20703;-63
2023/07/11 13:57:18;;;;;;;;;;;24.10;57.20;;;;;;5080294;28;19928;-63
2023/07/11 13:59:45;;;;;;;;;;;24.10;57.30;;;;;;5080658;28;20604;-62
2023/07/11 14:02:19;;;;;;;;;;;24.10;57.10;;;;;;5081191;28;19963;-63
2023/07/11 14:04:46;;;;;;;;;;;24.10;62.20;;;;;;5079661;28;19928;-63
2023/07/11 14:07:14;;;;;;;;;;;24.10;66.10;;;;;;5074875;28;19928;-64
2023/07/11 14:09:42;;;;;;;;;;;24.30;67.80;;;;;;5075001;28;19964;-59
2023/07/11 14:12:13;;;;;;;;;;;24.40;68.90;;;;;;5072819;28;19931;-57
2023/07/11 14:14:40;;;;;;;;;;;24.50;69.20;;;;;;5081072;28;19976;-57
2023/07/11 14:17:14;;;;;;;;;;;24.70;68.80;;;;;;5080186;28;19924;-58
2023/07/11 14:19:41;;;;;;;;;;;24.90;68.20;;;;;;5087784;28;19962;-57
2023/07/11 14:22:11;;;;;;;;;;;25.10;67.80;;;;;;5076572;28;19933;-57
2023/07/11 14:24:40;;;;;;;;;;;25.20;68.00;;;;;;5079226;28;19982;-57
2023/07/11 14:27:14;;;;;;;;;;;25.40;67.50;;;;;;5076670;28;20026;-57
2023/07/11 14:29:41;;;;;;;;;;;25.60;67.40;;;;;;5076283;28;19925;-57
2023/07/11 14:32:13;;;;;;;;;;;25.70;67.10;;;;;;5076945;28;20343;-57
2023/07/11 14:34:40;;;;;;;;;;;25.80;66.90;;;;;;5074350;28;20006;-58